Haskins, Ohio
Current Conditions -  °F | °C
As of 1:52 AM on Monday 24 Nov 2014 (Local Time) from KTOL Reporting Station
Light Rain Light Rain  
Wind Chill: 55°   Ceiling: 1000
Heat Index: 55°   Visibility: 10mi
Dew Point: 53°   Wind: 14mph
Humidity: 93%   Direction: 180°S
Pressure: 29.11"   Gusts: 22mph
Location:  41.46°N, 83.71°W
Report Text: KTOL 240652Z 18012G19KT 10SM -RA BKN010 OVC015 13/12 A2911 RMK AO2 SLP856 P0002 T01280117
Loading
Personal Weather Stations






























Interactive Weather Map New forecast layout! Learn more

10-Day Weather Forecast

Advertisements
Track Severe Weather on mobile